createdAt,value
2022-11-20T00:00:06.127Z,33.35
2022-11-20T00:02:54.616Z,31.50
2022-11-20T00:05:42.497Z,26.20
2022-11-20T00:08:30.257Z,28.50
2022-11-20T00:11:23.141Z,32.85
2022-11-20T00:14:11.497Z,23.90
2022-11-20T00:16:59.284Z,34.95
2022-11-20T00:19:47.048Z,27.88
2022-11-20T00:22:34.833Z,33.05
2022-11-20T00:25:22.437Z,37.13
2022-11-20T00:28:10.126Z,31.35
2022-11-20T00:31:13.270Z,35.13
2022-11-20T00:34:01.006Z,33.25
2022-11-20T00:36:48.532Z,38.58
2022-11-20T00:39:36.182Z,34.33
2022-11-20T00:42:23.797Z,37.70
2022-11-20T00:45:11.431Z,33.30
2022-11-20T00:47:59.090Z,40.80
2022-11-20T00:50:46.919Z,48.45
2022-11-20T00:53:34.785Z,39.03
2022-11-20T00:56:22.544Z,43.35
2022-11-20T00:59:10.536Z,46.00
2022-11-20T01:01:58.295Z,42.58
2022-11-20T01:04:46.291Z,40.13
2022-11-20T01:07:34.087Z,43.08
2022-11-20T01:10:21.864Z,41.83
2022-11-20T01:13:28.179Z,41.30
2022-11-20T01:16:21.441Z,34.25
2022-11-20T01:19:17.758Z,43.53
2022-11-20T01:22:05.704Z,36.67
2022-11-20T01:24:53.371Z,44.45
2022-11-20T01:27:43.970Z,48.63
2022-11-20T01:30:31.668Z,46.30
2022-11-20T01:33:19.281Z,43.47
2022-11-20T01:36:07.846Z,38.65
2022-11-20T01:38:57.791Z,48.17
2022-11-20T01:42:10.291Z,42.10
2022-11-20T01:45:00.470Z,47.22
2022-11-20T01:47:48.295Z,45.03
2022-11-20T01:50:38.382Z,41.90
2022-11-20T01:53:32.177Z,34.42
2022-11-20T01:56:20.018Z,34.55
2022-11-20T01:59:19.408Z,41.90
2022-11-20T02:02:12.566Z,45.08
2022-11-20T02:05:11.042Z,43.38
2022-11-20T02:08:00.335Z,47.90
2022-11-20T02:10:50.631Z,53.45
2022-11-20T02:13:47.050Z,54.50
2022-11-20T02:16:46.171Z,50.80
2022-11-20T02:19:36.153Z,48.00
2022-11-20T02:22:34.173Z,56.75
2022-11-20T02:25:22.891Z,44.00
2022-11-20T02:28:11.515Z,59.10
2022-11-20T02:30:59.387Z,60.15
2022-11-20T02:33:46.976Z,58.25
2022-11-20T02:36:37.194Z,63.97
2022-11-20T02:39:27.809Z,54.45
2022-11-20T02:42:15.568Z,57.75
2022-11-20T02:45:03.566Z,67.93
2022-11-20T02:47:52.072Z,71.50
2022-11-20T02:50:41.173Z,72.90
2022-11-20T02:53:28.907Z,69.63
2022-11-20T02:56:19.130Z,78.75
2022-11-20T02:59:07.779Z,71.47
2022-11-20T03:01:55.484Z,66.40
2022-11-20T03:04:43.274Z,69.65
2022-11-20T03:07:32.041Z,83.25
2022-11-20T03:10:19.634Z,67.07
2022-11-20T03:13:07.402Z,78.72
2022-11-20T03:15:55.047Z,75.50
2022-11-20T03:18:43.617Z,61.35
2022-11-20T03:21:31.380Z,58.65
2022-11-20T03:24:19.313Z,65.25
2022-11-20T03:27:07.028Z,80.65
2022-11-20T03:29:54.685Z,69.03
2022-11-20T03:32:42.491Z,62.58
2022-11-20T03:35:30.270Z,58.97
2022-11-20T03:38:17.918Z,69.88
2022-11-20T03:41:08.905Z,65.90
2022-11-20T03:44:01.823Z,63.92
2022-11-20T03:46:49.824Z,60.90
2022-11-20T03:49:38.247Z,65.40
2022-11-20T03:52:25.973Z,69.15
2022-11-20T03:55:13.706Z,67.75
2022-11-20T03:58:01.375Z,76.07
2022-11-20T04:00:49.069Z,78.72
2022-11-20T04:03:38.522Z,62.17
2022-11-20T04:06:31.365Z,71.30
2022-11-20T04:09:19.326Z,83.93
2022-11-20T04:12:10.284Z,72.90
2022-11-20T04:14:57.959Z,75.68
2022-11-20T04:17:45.570Z,75.32
2022-11-20T04:20:33.283Z,80.72
2022-11-20T04:23:25.826Z,63.95
2022-11-20T04:26:16.291Z,66.85
2022-11-20T04:29:04.335Z,79.15
2022-11-20T04:31:52.068Z,70.22
2022-11-20T04:34:39.713Z,84.32
2022-11-20T04:37:27.384Z,73.70
2022-11-20T04:40:15.262Z,74.88
2022-11-20T04:43:03.000Z,71.75
2022-11-20T04:45:55.591Z,70.57
2022-11-20T04:48:43.215Z,76.60
2022-11-20T04:51:31.002Z,60.63
2022-11-20T04:54:24.462Z,72.90
2022-11-20T04:57:14.763Z,71.30
2022-11-20T05:00:02.656Z,72.35
2022-11-20T05:02:50.508Z,76.63
2022-11-20T05:05:40.453Z,74.93
2022-11-20T05:08:28.042Z,62.50
2022-11-20T05:11:18.620Z,62.50
2022-11-20T05:14:09.276Z,63.33
2022-11-20T05:16:57.119Z,66.10
2022-11-20T05:19:45.488Z,68.72
2022-11-20T05:22:37.640Z,63.50
2022-11-20T05:25:25.234Z,72.07
2022-11-20T05:28:15.333Z,68.53
2022-11-20T05:31:07.045Z,55.67
2022-11-20T05:33:55.322Z,56.58
2022-11-20T05:36:42.918Z,69.30
2022-11-20T05:39:30.636Z,52.55
2022-11-20T05:42:33.350Z,56.25
2022-11-20T05:45:21.176Z,60.17
2022-11-20T05:48:08.872Z,66.18
2022-11-20T05:50:59.373Z,64.28
2022-11-20T05:53:48.735Z,66.38
2022-11-20T05:56:36.682Z,58.97
2022-11-20T05:59:24.532Z,64.82
2022-11-20T06:02:12.651Z,60.30
2022-11-20T06:05:03.894Z,57.05
2022-11-20T06:07:51.605Z,63.78
2022-11-20T06:10:42.247Z,54.75
2022-11-20T06:13:29.919Z,47.70
2022-11-20T06:16:20.154Z,55.17
2022-11-20T06:19:12.997Z,47.42
2022-11-20T06:22:00.685Z,45.78
2022-11-20T06:24:48.670Z,66.95
2022-11-20T06:27:36.366Z,54.05
2022-11-20T06:30:27.134Z,68.43
2022-11-20T06:33:14.886Z,56.85
2022-11-20T06:36:10.625Z,51.17
2022-11-20T06:39:00.642Z,72.20
2022-11-20T06:41:48.316Z,57.67
2022-11-20T06:44:35.961Z,64.63
2022-11-20T06:47:23.708Z,58.58
2022-11-20T06:50:11.311Z,70.07
2022-11-20T06:53:03.882Z,63.13
2022-11-20T06:55:52.856Z,65.40
2022-11-20T06:58:43.235Z,64.07
2022-11-20T07:01:30.968Z,65.85
2022-11-20T07:04:21.143Z,60.83
2022-11-20T07:07:10.451Z,65.63
2022-11-20T07:09:58.363Z,54.00
2022-11-20T07:12:51.891Z,57.40
2022-11-20T07:15:39.491Z,94.65
2022-11-20T07:18:27.505Z,72.90
2022-11-20T07:21:17.916Z,96.03
2022-11-20T07:24:05.715Z,52.75
2022-11-20T07:26:53.437Z,69.47
2022-11-20T07:29:41.087Z,62.67
2022-11-20T07:32:28.839Z,56.83
2022-11-20T07:35:16.520Z,67.05
2022-11-20T07:38:06.785Z,58.80
2022-11-20T07:41:04.880Z,55.47
2022-11-20T07:43:53.567Z,55.30
2022-11-20T07:46:41.345Z,59.60
2022-11-20T07:49:29.285Z,59.25
2022-11-20T07:52:17.068Z,58.63
2022-11-20T07:55:05.225Z,56.85
2022-11-20T07:57:57.370Z,53.85
2022-11-20T08:03:32.700Z,56.63
2022-11-20T08:06:21.254Z,52.65
2022-11-20T08:09:08.878Z,47.65
2022-11-20T08:12:15.178Z,42.13
2022-11-20T08:15:02.918Z,47.70
2022-11-20T08:18:08.600Z,54.83
2022-11-20T08:20:58.339Z,43.78
2022-11-20T08:23:46.057Z,44.00
2022-11-20T08:26:33.956Z,39.20
2022-11-20T08:29:21.934Z,40.67
2022-11-20T08:32:09.876Z,45.80
2022-11-20T08:34:57.550Z,41.28
2022-11-20T08:37:48.207Z,37.33
2022-11-20T08:40:35.896Z,38.95
2022-11-20T08:43:23.595Z,42.53
2022-11-20T08:46:11.414Z,36.78
2022-11-20T08:49:02.089Z,32.72
2022-11-20T08:51:52.925Z,39.58
2022-11-20T08:54:45.033Z,38.00
2022-11-20T09:00:21.210Z,32.20
2022-11-20T09:03:08.902Z,37.78
2022-11-20T09:06:03.519Z,37.60
2022-11-20T09:08:54.766Z,36.20
2022-11-20T09:11:45.041Z,33.55
2022-11-20T09:14:33.131Z,32.92
2022-11-20T09:17:21.660Z,31.73
2022-11-20T09:20:09.723Z,34.92
2022-11-20T09:22:58.287Z,25.08
2022-11-20T09:25:45.943Z,26.63
2022-11-20T09:28:34.003Z,24.85
2022-11-20T09:31:25.674Z,24.40
2022-11-20T09:34:13.395Z,27.02
2022-11-20T09:37:04.473Z,24.15
2022-11-20T09:39:56.341Z,29.10
2022-11-20T09:42:53.102Z,33.60
2022-11-20T09:46:09.045Z,35.75
2022-11-20T09:49:13.749Z,35.10
2022-11-20T09:52:11.683Z,26.10
2022-11-20T09:55:03.836Z,39.95
2022-11-20T10:00:41.028Z,27.60
2022-11-20T10:03:46.129Z,38.03
2022-11-20T10:06:43.108Z,35.00
2022-11-20T10:09:33.570Z,47.95
2022-11-20T10:12:35.424Z,44.53
2022-11-20T10:15:45.225Z,45.30
2022-11-20T10:18:36.025Z,41.90
2022-11-20T10:22:01.093Z,32.25
2022-11-20T10:25:03.851Z,34.20
2022-11-20T10:27:54.360Z,32.33
2022-11-20T10:30:55.974Z,25.42
2022-11-20T10:34:12.058Z,30.73
2022-11-20T10:36:59.798Z,29.75
2022-11-20T10:40:05.582Z,26.52
2022-11-20T10:43:02.736Z,31.15
2022-11-20T10:46:29.014Z,22.30
2022-11-20T10:49:20.333Z,30.08
2022-11-20T10:52:21.110Z,32.17
2022-11-20T10:55:46.310Z,35.92
2022-11-20T10:58:52.029Z,45.60
2022-11-20T11:01:45.618Z,31.08
2022-11-20T11:04:50.916Z,31.95
2022-11-20T11:07:40.861Z,46.78
2022-11-20T11:10:34.624Z,33.97
2022-11-20T11:13:28.304Z,25.77
2022-11-20T11:16:34.655Z,25.63
2022-11-20T11:19:22.724Z,24.77
2022-11-20T11:22:19.350Z,50.13
2022-11-20T11:25:20.206Z,29.65
2022-11-20T11:28:23.270Z,31.58
2022-11-20T11:31:11.049Z,26.25
2022-11-20T11:34:09.576Z,23.52
2022-11-20T11:36:59.867Z,32.33
2022-11-20T11:40:03.883Z,24.85
2022-11-20T11:43:00.949Z,25.17
2022-11-20T11:45:54.963Z,23.52
2022-11-20T11:48:45.796Z,15.98
2022-11-20T11:51:56.148Z,17.30
2022-11-20T11:54:53.158Z,18.40
2022-11-20T11:58:07.835Z,26.90
2022-11-20T12:01:30.863Z,20.15
2022-11-20T12:04:42.828Z,18.67
2022-11-20T12:07:46.662Z,18.13
2022-11-20T12:10:57.670Z,23.63
2022-11-20T12:13:56.129Z,27.67
2022-11-20T12:16:43.957Z,39.47
2022-11-20T12:19:34.803Z,25.20
2022-11-20T12:22:30.289Z,28.02
2022-11-20T12:25:30.412Z,30.02
2022-11-20T12:28:20.850Z,24.42
2022-11-20T12:31:36.508Z,23.95
2022-11-20T12:34:45.868Z,20.60
2022-11-20T12:37:49.976Z,24.98
2022-11-20T12:40:54.828Z,26.77
2022-11-20T12:44:19.157Z,26.52
2022-11-20T12:47:24.673Z,38.55
2022-11-20T12:50:19.789Z,26.10
2022-11-20T12:53:30.310Z,23.08
2022-11-20T12:56:32.917Z,23.15
2022-11-20T12:59:36.104Z,29.65
2022-11-20T13:02:58.638Z,32.75
2022-11-20T13:08:49.437Z,24.58
2022-11-20T13:11:49.885Z,26.33
2022-11-20T13:15:03.807Z,41.58
2022-11-20T13:18:00.057Z,56.15
2022-11-20T13:20:49.408Z,29.98
2022-11-20T13:23:36.970Z,37.88
2022-11-20T13:26:25.326Z,49.63
2022-11-20T13:29:18.887Z,49.03
2022-11-20T13:32:17.190Z,43.60
2022-11-20T13:35:06.762Z,36.00
2022-11-20T13:38:06.769Z,25.70
2022-11-20T13:40:59.738Z,20.05
2022-11-20T13:43:49.437Z,22.67
2022-11-20T13:46:45.959Z,18.30
2022-11-20T13:49:49.472Z,18.67
2022-11-20T13:53:23.424Z,20.92
2022-11-20T13:56:26.014Z,17.90
2022-11-20T13:59:34.908Z,28.30
2022-11-20T14:02:28.159Z,24.33
2022-11-20T14:05:23.127Z,44.00
2022-11-20T14:08:22.029Z,54.33
2022-11-20T14:11:19.746Z,34.63
2022-11-20T14:14:25.436Z,41.58
2022-11-20T14:17:29.827Z,34.38
2022-11-20T14:20:20.095Z,38.35
2022-11-20T14:23:11.833Z,32.97
2022-11-20T14:25:59.855Z,27.40
2022-11-20T14:28:52.150Z,29.17
2022-11-20T14:31:43.582Z,26.92
2022-11-20T14:34:34.779Z,28.60
2022-11-20T14:37:25.767Z,29.63
2022-11-20T14:40:37.361Z,30.83
2022-11-20T14:43:29.884Z,29.23
2022-11-20T14:46:18.019Z,30.48
2022-11-20T14:49:14.490Z,39.50
2022-11-20T14:52:19.978Z,38.83
2022-11-20T14:57:59.482Z,43.45
2022-11-20T15:00:59.390Z,40.40
2022-11-20T15:03:47.011Z,40.25
2022-11-20T15:06:34.816Z,36.75
2022-11-20T15:09:25.096Z,50.38
2022-11-20T15:12:19.455Z,49.80
2022-11-20T15:15:08.098Z,57.00
2022-11-20T15:17:55.973Z,46.53
2022-11-20T15:20:44.820Z,39.33
2022-11-20T15:23:32.447Z,35.20
2022-11-20T15:26:27.457Z,37.35
2022-11-20T15:29:22.099Z,33.80
2022-11-20T15:32:13.606Z,32.28
2022-11-20T15:35:01.445Z,29.77
2022-11-20T15:37:49.107Z,26.40
2022-11-20T15:40:42.195Z,24.55
2022-11-20T15:43:32.074Z,20.42
2022-11-20T15:46:27.650Z,22.52
2022-11-20T15:49:20.101Z,21.83
2022-11-20T15:52:10.649Z,24.27
2022-11-20T15:54:58.402Z,31.17
2022-11-20T15:57:47.483Z,34.97
2022-11-20T16:00:35.161Z,44.13
2022-11-20T16:03:23.466Z,33.85
2022-11-20T16:06:11.243Z,30.95
2022-11-20T16:08:58.980Z,34.95
2022-11-20T16:11:46.592Z,33.17
2022-11-20T16:14:52.687Z,42.03
2022-11-20T16:17:46.288Z,49.38
2022-11-20T16:20:34.206Z,48.88
2022-11-20T16:23:24.675Z,28.00
2022-11-20T16:26:18.210Z,26.38
2022-11-20T16:29:11.211Z,30.25
2022-11-20T16:31:58.865Z,43.08
2022-11-20T16:34:46.601Z,38.67
2022-11-20T16:37:34.456Z,52.55
2022-11-20T16:40:26.448Z,35.22
2022-11-20T16:43:17.900Z,47.78
2022-11-20T16:46:05.851Z,33.97
2022-11-20T16:48:55.686Z,63.03
2022-11-20T16:51:47.534Z,21.92
2022-11-20T16:54:35.191Z,21.83
2022-11-20T16:57:28.968Z,27.60
2022-11-20T17:00:16.958Z,19.10
2022-11-20T17:03:06.477Z,19.80
2022-11-20T17:05:55.207Z,34.63
2022-11-20T17:08:43.546Z,31.88
2022-11-20T17:11:31.275Z,20.13
2022-11-20T17:14:18.999Z,19.52
2022-11-20T17:17:06.863Z,13.88
2022-11-20T17:19:54.657Z,15.85
2022-11-20T17:22:45.516Z,17.23
2022-11-20T17:25:34.712Z,22.85
2022-11-20T17:28:22.588Z,15.57
2022-11-20T17:31:15.761Z,7.15
2022-11-20T17:34:03.575Z,9.00
2022-11-20T17:36:51.251Z,7.90
2022-11-20T17:39:40.118Z,19.05
2022-11-20T17:42:27.749Z,62.22
2022-11-20T17:45:15.423Z,32.38
2022-11-20T17:48:03.123Z,22.65
2022-11-20T17:50:51.466Z,8.93
2022-11-20T17:53:41.318Z,5.65
2022-11-20T17:56:54.389Z,9.63
2022-11-20T17:59:42.021Z,6.68
2022-11-20T18:02:29.828Z,11.60
2022-11-20T18:05:17.620Z,12.02
2022-11-20T18:08:05.437Z,12.38
2022-11-20T18:10:53.094Z,17.63
2022-11-20T18:14:00.942Z,13.80
2022-11-20T18:17:18.361Z,7.82
2022-11-20T18:20:27.788Z,5.20
2022-11-20T18:23:14.514Z,8.05
2022-11-20T18:26:02.251Z,4.32
2022-11-20T18:28:50.662Z,7.60
2022-11-20T18:31:38.365Z,11.48
2022-11-20T18:34:27.195Z,14.02
2022-11-20T18:37:16.651Z,6.10
2022-11-20T18:40:05.040Z,9.65
2022-11-20T18:43:11.109Z,4.68
2022-11-20T18:46:03.731Z,12.65
2022-11-20T18:48:52.163Z,12.60
2022-11-20T18:51:41.167Z,12.82
2022-11-20T18:54:31.440Z,26.70
2022-11-20T18:57:20.849Z,11.30
2022-11-20T19:00:10.137Z,9.05
2022-11-20T19:02:58.068Z,14.95
2022-11-20T19:05:45.792Z,12.23
2022-11-20T19:08:34.931Z,13.38
2022-11-20T19:11:22.645Z,8.45
2022-11-20T19:14:10.531Z,25.92
2022-11-20T19:16:58.550Z,12.25
2022-11-20T19:19:46.302Z,15.98
2022-11-20T19:22:37.863Z,9.55
2022-11-20T19:25:25.445Z,10.15
2022-11-20T19:28:13.178Z,11.55
2022-11-20T19:31:12.578Z,14.15
2022-11-20T19:36:59.045Z,6.68
2022-11-20T19:39:51.447Z,6.13
2022-11-20T19:45:27.340Z,7.15
2022-11-20T19:48:14.982Z,9.18
2022-11-20T19:51:10.713Z,5.85
2022-11-20T19:53:59.729Z,5.55
2022-11-20T19:56:49.709Z,3.25
2022-11-20T19:59:37.488Z,2.85
2022-11-20T20:02:25.903Z,3.95
2022-11-20T20:05:13.611Z,4.97
2022-11-20T20:08:01.700Z,3.03
2022-11-20T20:10:56.616Z,5.15
2022-11-20T20:13:50.728Z,4.47
2022-11-20T20:16:38.375Z,5.88
2022-11-20T20:19:26.559Z,2.88
2022-11-20T20:22:14.479Z,6.85
2022-11-20T20:25:02.163Z,7.75
2022-11-20T20:27:49.827Z,2.38
2022-11-20T20:30:37.550Z,4.72
2022-11-20T20:33:25.302Z,1.67
2022-11-20T20:36:15.284Z,3.60
2022-11-20T20:39:03.158Z,4.70
2022-11-20T20:41:51.047Z,6.35
2022-11-20T20:44:57.422Z,4.82
2022-11-20T20:47:45.360Z,4.57
2022-11-20T20:50:33.310Z,11.30
2022-11-20T20:53:21.804Z,6.70
2022-11-20T20:56:10.100Z,9.82
2022-11-20T20:58:58.081Z,8.70
2022-11-20T21:01:45.918Z,4.05
2022-11-20T21:04:34.192Z,4.55
2022-11-20T21:07:22.146Z,5.38
2022-11-20T21:10:09.957Z,4.10
2022-11-20T21:12:57.586Z,5.50
2022-11-20T21:15:48.529Z,1.80
2022-11-20T21:18:36.332Z,2.03
2022-11-20T21:21:42.307Z,6.72
2022-11-20T21:24:35.070Z,3.83
2022-11-20T21:27:24.870Z,5.47
2022-11-20T21:30:13.069Z,4.55
2022-11-20T21:33:01.091Z,8.15
2022-11-20T21:35:48.767Z,3.38
2022-11-20T21:38:37.030Z,2.80
2022-11-20T21:41:27.385Z,3.45
2022-11-20T21:44:30.652Z,6.35
2022-11-20T21:47:23.535Z,4.53
2022-11-20T21:50:11.880Z,6.43
2022-11-20T21:53:00.537Z,5.07
2022-11-20T21:55:58.129Z,3.22
2022-11-20T21:58:46.412Z,3.75
2022-11-20T22:01:34.217Z,3.15
2022-11-20T22:04:23.174Z,6.43
2022-11-20T22:07:11.165Z,4.38
2022-11-20T22:09:58.839Z,2.20
2022-11-20T22:12:46.566Z,3.65
2022-11-20T22:15:59.369Z,2.03
2022-11-20T22:18:50.513Z,2.90
2022-11-20T22:21:40.283Z,2.45
2022-11-20T22:24:28.235Z,3.83
2022-11-20T22:27:15.943Z,14.25
2022-11-20T22:30:03.826Z,8.40
2022-11-20T22:32:54.299Z,11.63
2022-11-20T22:35:42.014Z,4.47
2022-11-20T22:38:30.090Z,3.13
2022-11-20T22:41:21.145Z,2.85
2022-11-20T22:44:09.253Z,1.63
2022-11-20T22:46:56.949Z,11.10
2022-11-20T22:49:44.713Z,4.97
2022-11-20T22:52:37.798Z,6.82
2022-11-20T22:55:27.993Z,7.07
2022-11-20T22:58:15.804Z,2.03
2022-11-20T23:01:15.591Z,4.05
2022-11-20T23:04:06.009Z,7.75
2022-11-20T23:06:53.609Z,2.97
2022-11-20T23:09:41.391Z,3.85
2022-11-20T23:12:29.082Z,2.38
2022-11-20T23:15:16.866Z,1.38
2022-11-20T23:18:04.655Z,3.70
2022-11-20T23:20:52.344Z,4.40
2022-11-20T23:23:40.912Z,10.82
2022-11-20T23:26:32.565Z,5.90
2022-11-20T23:29:20.347Z,7.90
2022-11-20T23:32:08.177Z,7.78
2022-11-20T23:34:55.943Z,4.45
2022-11-20T23:37:45.853Z,4.18
2022-11-20T23:40:40.083Z,5.30
2022-11-20T23:43:29.026Z,10.05
2022-11-20T23:46:17.099Z,4.68
2022-11-20T23:49:04.981Z,2.42
2022-11-20T23:51:52.535Z,2.25
2022-11-20T23:54:40.161Z,1.27
2022-11-20T23:57:27.799Z,2.15
